sensor_id;sensor_type;location;lat;lon;timestamp;temperature;humidity
4002;DHT22;2015;48.670;9.060;2023-11-21T00:00:19;7.50;99.90
4002;DHT22;2015;48.670;9.060;2023-11-21T00:02:51;7.50;99.90
4002;DHT22;2015;48.670;9.060;2023-11-21T00:05:23;7.50;99.90
4002;DHT22;2015;48.670;9.060;2023-11-21T00:07:55;7.50;99.90
4002;DHT22;2015;48.670;9.060;2023-11-21T00:10:27;7.50;99.90
4002;DHT22;2015;48.670;9.060;2023-11-21T00:13:00;7.50;99.90
4002;DHT22;2015;48.670;9.060;2023-11-21T00:15:33;7.60;99.90
4002;DHT22;2015;48.670;9.060;2023-11-21T00:18:05;7.60;99.90
4002;DHT22;2015;48.670;9.060;2023-11-21T00:20:37;7.60;99.90
4002;DHT22;2015;48.670;9.060;2023-11-21T00:23:09;7.60;99.90
4002;DHT22;2015;48.670;9.060;2023-11-21T00:25:41;7.60;99.90
4002;DHT22;2015;48.670;9.060;2023-11-21T00:28:12;7.60;99.90
4002;DHT22;2015;48.670;9.060;2023-11-21T00:30:44;7.60;99.90
4002;DHT22;2015;48.670;9.060;2023-11-21T00:33:16;7.60;99.90
4002;DHT22;2015;48.670;9.060;2023-11-21T00:35:48;7.70;99.90
4002;DHT22;2015;48.670;9.060;2023-11-21T00:38:20;7.70;99.90
4002;DHT22;2015;48.670;9.060;2023-11-21T00:40:51;7.70;99.90
4002;DHT22;2015;48.670;9.060;2023-11-21T00:43:24;7.70;99.90
4002;DHT22;2015;48.670;9.060;2023-11-21T00:45:56;7.70;99.90
4002;DHT22;2015;48.670;9.060;2023-11-21T00:48:28;7.70;99.90
4002;DHT22;2015;48.670;9.060;2023-11-21T00:51:00;7.70;99.90
4002;DHT22;2015;48.670;9.060;2023-11-21T00:53:32;7.70;99.90
4002;DHT22;2015;48.670;9.060;2023-11-21T00:56:04;7.70;99.90
4002;DHT22;2015;48.670;9.060;2023-11-21T00:58:36;7.70;99.90
4002;DHT22;2015;48.670;9.060;2023-11-21T01:01:08;7.70;99.90
4002;DHT22;2015;48.670;9.060;2023-11-21T01:03:39;7.70;99.90
4002;DHT22;2015;48.670;9.060;2023-11-21T01:06:12;7.70;99.90
4002;DHT22;2015;48.670;9.060;2023-11-21T01:08:46;7.70;99.90
4002;DHT22;2015;48.670;9.060;2023-11-21T01:11:18;7.70;99.90
4002;DHT22;2015;48.670;9.060;2023-11-21T01:13:50;7.70;99.90
4002;DHT22;2015;48.670;9.060;2023-11-21T01:16:22;7.70;99.90
4002;DHT22;2015;48.670;9.060;2023-11-21T01:18:53;7.70;99.90
4002;DHT22;2015;48.670;9.060;2023-11-21T01:21:25;7.60;99.90
4002;DHT22;2015;48.670;9.060;2023-11-21T01:23:57;7.60;99.90
4002;DHT22;2015;48.670;9.060;2023-11-21T01:26:29;7.60;99.90
4002;DHT22;2015;48.670;9.060;2023-11-21T01:29:01;7.60;99.90
4002;DHT22;2015;48.670;9.060;2023-11-21T01:31:32;7.60;99.90
4002;DHT22;2015;48.670;9.060;2023-11-21T01:34:04;7.60;99.90
4002;DHT22;2015;48.670;9.060;2023-11-21T01:36:36;7.60;99.90
4002;DHT22;2015;48.670;9.060;2023-11-21T01:39:08;7.60;99.90
4002;DHT22;2015;48.670;9.060;2023-11-21T01:41:40;7.60;99.90
4002;DHT22;2015;48.670;9.060;2023-11-21T01:44:12;7.60;99.90
4002;DHT22;2015;48.670;9.060;2023-11-21T01:46:45;7.60;99.90
4002;DHT22;2015;48.670;9.060;2023-11-21T01:49:18;7.70;99.90
4002;DHT22;2015;48.670;9.060;2023-11-21T01:51:52;7.70;99.90
4002;DHT22;2015;48.670;9.060;2023-11-21T01:54:24;7.60;99.90
4002;DHT22;2015;48.670;9.060;2023-11-21T01:56:57;7.60;99.90
4002;DHT22;2015;48.670;9.060;2023-11-21T01:59:35;7.60;99.90
4002;DHT22;2015;48.670;9.060;2023-11-21T02:02:08;7.60;99.90
4002;DHT22;2015;48.670;9.060;2023-11-21T02:04:41;7.60;99.90
4002;DHT22;2015;48.670;9.060;2023-11-21T02:07:13;7.60;99.90
4002;DHT22;2015;48.670;9.060;2023-11-21T02:09:45;7.50;99.90
4002;DHT22;2015;48.670;9.060;2023-11-21T02:12:16;7.50;99.90
4002;DHT22;2015;48.670;9.060;2023-11-21T02:14:48;7.50;99.90
4002;DHT22;2015;48.670;9.060;2023-11-21T02:17:20;7.50;99.90
4002;DHT22;2015;48.670;9.060;2023-11-21T02:19:52;7.50;99.90
4002;DHT22;2015;48.670;9.060;2023-11-21T02:22:26;7.50;99.90
4002;DHT22;2015;48.670;9.060;2023-11-21T02:25:00;7.50;99.90
4002;DHT22;2015;48.670;9.060;2023-11-21T02:27:32;7.40;99.90
4002;DHT22;2015;48.670;9.060;2023-11-21T02:30:04;7.50;99.90
4002;DHT22;2015;48.670;9.060;2023-11-21T02:32:36;7.50;99.90
4002;DHT22;2015;48.670;9.060;2023-11-21T02:35:20;7.40;99.90
4002;DHT22;2015;48.670;9.060;2023-11-21T02:37:53;7.40;99.90
4002;DHT22;2015;48.670;9.060;2023-11-21T02:40:25;7.40;99.90
4002;DHT22;2015;48.670;9.060;2023-11-21T02:42:58;7.40;99.90
4002;DHT22;2015;48.670;9.060;2023-11-21T02:45:31;7.40;99.90
4002;DHT22;2015;48.670;9.060;2023-11-21T02:48:03;7.40;99.90
4002;DHT22;2015;48.670;9.060;2023-11-21T02:50:36;7.40;99.90
4002;DHT22;2015;48.670;9.060;2023-11-21T02:53:09;7.30;99.90
4002;DHT22;2015;48.670;9.060;2023-11-21T02:55:42;7.30;99.90
4002;DHT22;2015;48.670;9.060;2023-11-21T02:58:14;7.30;99.90
4002;DHT22;2015;48.670;9.060;2023-11-21T03:00:46;7.30;99.90
4002;DHT22;2015;48.670;9.060;2023-11-21T03:03:18;7.30;99.90
4002;DHT22;2015;48.670;9.060;2023-11-21T03:05:50;7.30;99.90
4002;DHT22;2015;48.670;9.060;2023-11-21T03:08:21;7.30;99.90
4002;DHT22;2015;48.670;9.060;2023-11-21T03:10:53;7.40;99.90
4002;DHT22;2015;48.670;9.060;2023-11-21T03:13:25;7.40;99.90
4002;DHT22;2015;48.670;9.060;2023-11-21T03:15:57;7.40;99.90
4002;DHT22;2015;48.670;9.060;2023-11-21T03:18:28;7.30;99.90
4002;DHT22;2015;48.670;9.060;2023-11-21T03:21:01;7.30;99.90
4002;DHT22;2015;48.670;9.060;2023-11-21T03:23:32;7.30;99.90
4002;DHT22;2015;48.670;9.060;2023-11-21T03:26:04;7.30;99.90
4002;DHT22;2015;48.670;9.060;2023-11-21T03:28:37;7.20;99.90
4002;DHT22;2015;48.670;9.060;2023-11-21T03:31:09;7.20;99.90
4002;DHT22;2015;48.670;9.060;2023-11-21T03:33:40;7.20;99.90
4002;DHT22;2015;48.670;9.060;2023-11-21T03:36:12;7.20;99.90
4002;DHT22;2015;48.670;9.060;2023-11-21T03:38:48;7.30;99.90
4002;DHT22;2015;48.670;9.060;2023-11-21T03:41:20;7.30;99.90
4002;DHT22;2015;48.670;9.060;2023-11-21T03:43:52;7.30;99.90
4002;DHT22;2015;48.670;9.060;2023-11-21T03:46:24;7.30;99.90
4002;DHT22;2015;48.670;9.060;2023-11-21T03:48:56;7.30;99.90
4002;DHT22;2015;48.670;9.060;2023-11-21T03:51:27;7.40;99.90
4002;DHT22;2015;48.670;9.060;2023-11-21T03:53:59;7.40;99.90
4002;DHT22;2015;48.670;9.060;2023-11-21T03:56:31;7.40;99.90
4002;DHT22;2015;48.670;9.060;2023-11-21T03:59:03;7.40;99.90
4002;DHT22;2015;48.670;9.060;2023-11-21T04:01:35;7.40;99.90
4002;DHT22;2015;48.670;9.060;2023-11-21T04:04:06;7.40;99.90
4002;DHT22;2015;48.670;9.060;2023-11-21T04:06:38;7.40;99.90
4002;DHT22;2015;48.670;9.060;2023-11-21T04:09:10;7.40;99.90
4002;DHT22;2015;48.670;9.060;2023-11-21T04:11:41;7.50;99.90
4002;DHT22;2015;48.670;9.060;2023-11-21T04:14:14;7.50;99.90
4002;DHT22;2015;48.670;9.060;2023-11-21T04:16:46;7.50;99.90
4002;DHT22;2015;48.670;9.060;2023-11-21T04:19:18;7.50;99.90
4002;DHT22;2015;48.670;9.060;2023-11-21T04:21:49;7.50;99.90
4002;DHT22;2015;48.670;9.060;2023-11-21T04:24:21;7.40;99.90
4002;DHT22;2015;48.670;9.060;2023-11-21T04:26:53;7.40;99.90
4002;DHT22;2015;48.670;9.060;2023-11-21T04:29:25;7.40;99.90
4002;DHT22;2015;48.670;9.060;2023-11-21T04:31:57;7.40;99.90
4002;DHT22;2015;48.670;9.060;2023-11-21T04:34:29;7.40;99.90
4002;DHT22;2015;48.670;9.060;2023-11-21T04:37:02;7.40;99.90
4002;DHT22;2015;48.670;9.060;2023-11-21T04:39:34;7.40;99.90
4002;DHT22;2015;48.670;9.060;2023-11-21T04:42:06;7.30;99.90
4002;DHT22;2015;48.670;9.060;2023-11-21T04:44:38;7.30;99.90
4002;DHT22;2015;48.670;9.060;2023-11-21T04:47:12;7.30;99.90
4002;DHT22;2015;48.670;9.060;2023-11-21T04:49:45;7.30;99.90
4002;DHT22;2015;48.670;9.060;2023-11-21T04:52:18;7.40;99.90
4002;DHT22;2015;48.670;9.060;2023-11-21T04:54:51;7.40;99.90
4002;DHT22;2015;48.670;9.060;2023-11-21T04:57:25;7.40;99.90
4002;DHT22;2015;48.670;9.060;2023-11-21T04:59:57;7.40;99.90
4002;DHT22;2015;48.670;9.060;2023-11-21T05:02:29;7.40;99.90
4002;DHT22;2015;48.670;9.060;2023-11-21T05:05:07;7.30;99.90
4002;DHT22;2015;48.670;9.060;2023-11-21T05:07:40;7.30;99.90
4002;DHT22;2015;48.670;9.060;2023-11-21T05:10:13;7.30;99.90
4002;DHT22;2015;48.670;9.060;2023-11-21T05:12:46;7.30;99.90
4002;DHT22;2015;48.670;9.060;2023-11-21T05:15:18;7.30;99.90
4002;DHT22;2015;48.670;9.060;2023-11-21T05:17:50;7.30;99.90
4002;DHT22;2015;48.670;9.060;2023-11-21T05:20:23;7.40;99.90
4002;DHT22;2015;48.670;9.060;2023-11-21T05:22:55;7.40;99.90
4002;DHT22;2015;48.670;9.060;2023-11-21T05:25:27;7.40;99.90
4002;DHT22;2015;48.670;9.060;2023-11-21T05:27:59;7.40;99.90
4002;DHT22;2015;48.670;9.060;2023-11-21T05:30:32;7.30;99.90
4002;DHT22;2015;48.670;9.060;2023-11-21T05:33:05;7.30;99.90
4002;DHT22;2015;48.670;9.060;2023-11-21T05:35:36;7.30;99.90
4002;DHT22;2015;48.670;9.060;2023-11-21T05:38:08;7.30;99.90
4002;DHT22;2015;48.670;9.060;2023-11-21T05:40:40;7.30;99.90
4002;DHT22;2015;48.670;9.060;2023-11-21T05:43:12;7.30;99.90
4002;DHT22;2015;48.670;9.060;2023-11-21T05:45:44;7.30;99.90
4002;DHT22;2015;48.670;9.060;2023-11-21T05:48:15;7.30;99.90
4002;DHT22;2015;48.670;9.060;2023-11-21T05:50:47;7.30;99.90
4002;DHT22;2015;48.670;9.060;2023-11-21T05:53:21;7.30;99.90
4002;DHT22;2015;48.670;9.060;2023-11-21T05:55:53;7.30;99.90
4002;DHT22;2015;48.670;9.060;2023-11-21T05:58:25;7.20;99.90
4002;DHT22;2015;48.670;9.060;2023-11-21T06:00:57;7.30;99.90
4002;DHT22;2015;48.670;9.060;2023-11-21T06:03:29;7.30;99.90
4002;DHT22;2015;48.670;9.060;2023-11-21T06:06:01;7.30;99.90
4002;DHT22;2015;48.670;9.060;2023-11-21T06:08:32;7.30;99.90
4002;DHT22;2015;48.670;9.060;2023-11-21T06:11:04;7.30;99.90
4002;DHT22;2015;48.670;9.060;2023-11-21T06:13:36;7.30;99.90
4002;DHT22;2015;48.670;9.060;2023-11-21T06:16:08;7.30;99.90
4002;DHT22;2015;48.670;9.060;2023-11-21T06:18:40;7.30;99.90
4002;DHT22;2015;48.670;9.060;2023-11-21T06:21:12;7.20;99.90
4002;DHT22;2015;48.670;9.060;2023-11-21T06:23:45;7.30;99.90
4002;DHT22;2015;48.670;9.060;2023-11-21T06:26:17;7.20;99.90
4002;DHT22;2015;48.670;9.060;2023-11-21T06:28:48;7.20;99.90
4002;DHT22;2015;48.670;9.060;2023-11-21T06:31:22;7.20;99.90
4002;DHT22;2015;48.670;9.060;2023-11-21T06:33:54;7.20;99.90
4002;DHT22;2015;48.670;9.060;2023-11-21T06:36:26;7.20;99.90
4002;DHT22;2015;48.670;9.060;2023-11-21T06:38:58;7.20;99.90
4002;DHT22;2015;48.670;9.060;2023-11-21T06:41:30;7.20;99.90
4002;DHT22;2015;48.670;9.060;2023-11-21T06:44:01;7.20;99.90
4002;DHT22;2015;48.670;9.060;2023-11-21T06:46:34;7.30;99.90
4002;DHT22;2015;48.670;9.060;2023-11-21T06:49:06;7.30;99.90
4002;DHT22;2015;48.670;9.060;2023-11-21T06:51:38;7.30;99.90
4002;DHT22;2015;48.670;9.060;2023-11-21T06:54:09;7.40;99.90
4002;DHT22;2015;48.670;9.060;2023-11-21T06:56:41;7.40;99.90
4002;DHT22;2015;48.670;9.060;2023-11-21T06:59:13;7.40;99.90
4002;DHT22;2015;48.670;9.060;2023-11-21T07:01:44;7.50;99.90
4002;DHT22;2015;48.670;9.060;2023-11-21T07:04:16;7.50;99.90
4002;DHT22;2015;48.670;9.060;2023-11-21T07:06:50;7.50;99.90
4002;DHT22;2015;48.670;9.060;2023-11-21T07:09:21;7.50;99.90
4002;DHT22;2015;48.670;9.060;2023-11-21T07:11:57;7.60;99.90
4002;DHT22;2015;48.670;9.060;2023-11-21T07:14:29;7.60;99.90
4002;DHT22;2015;48.670;9.060;2023-11-21T07:17:01;7.60;99.90
4002;DHT22;2015;48.670;9.060;2023-11-21T07:19:33;7.60;99.90
4002;DHT22;2015;48.670;9.060;2023-11-21T07:22:05;7.60;99.90
4002;DHT22;2015;48.670;9.060;2023-11-21T07:24:37;7.70;99.90
4002;DHT22;2015;48.670;9.060;2023-11-21T07:27:09;7.70;99.90
4002;DHT22;2015;48.670;9.060;2023-11-21T07:29:40;7.70;99.90
4002;DHT22;2015;48.670;9.060;2023-11-21T07:32:12;7.70;99.90
4002;DHT22;2015;48.670;9.060;2023-11-21T07:34:45;7.70;99.90
4002;DHT22;2015;48.670;9.060;2023-11-21T07:37:17;7.70;99.90
4002;DHT22;2015;48.670;9.060;2023-11-21T07:39:49;7.70;99.90
4002;DHT22;2015;48.670;9.060;2023-11-21T07:42:20;7.70;99.90
4002;DHT22;2015;48.670;9.060;2023-11-21T07:44:52;7.70;99.90
4002;DHT22;2015;48.670;9.060;2023-11-21T07:47:24;7.70;99.90
4002;DHT22;2015;48.670;9.060;2023-11-21T07:49:59;7.70;99.90
4002;DHT22;2015;48.670;9.060;2023-11-21T07:52:30;7.80;99.90
4002;DHT22;2015;48.670;9.060;2023-11-21T07:55:02;7.80;99.90
4002;DHT22;2015;48.670;9.060;2023-11-21T07:57:35;7.90;99.90
4002;DHT22;2015;48.670;9.060;2023-11-21T08:00:07;7.90;99.90
4002;DHT22;2015;48.670;9.060;2023-11-21T08:02:41;7.90;99.90
4002;DHT22;2015;48.670;9.060;2023-11-21T08:05:14;7.90;99.90
4002;DHT22;2015;48.670;9.060;2023-11-21T08:07:58;7.80;99.90
4002;DHT22;2015;48.670;9.060;2023-11-21T08:10:30;7.80;99.90
4002;DHT22;2015;48.670;9.060;2023-11-21T08:13:03;7.90;99.90
4002;DHT22;2015;48.670;9.060;2023-11-21T08:15:35;7.90;99.90
4002;DHT22;2015;48.670;9.060;2023-11-21T08:18:08;7.90;99.90
4002;DHT22;2015;48.670;9.060;2023-11-21T08:20:40;7.90;99.90
4002;DHT22;2015;48.670;9.060;2023-11-21T08:23:12;7.90;99.90
4002;DHT22;2015;48.670;9.060;2023-11-21T08:25:44;8.00;99.90
4002;DHT22;2015;48.670;9.060;2023-11-21T08:28:16;8.10;99.90
4002;DHT22;2015;48.670;9.060;2023-11-21T08:30:48;8.00;99.90
4002;DHT22;2015;48.670;9.060;2023-11-21T08:33:20;8.10;99.90
4002;DHT22;2015;48.670;9.060;2023-11-21T08:35:51;8.20;99.90
4002;DHT22;2015;48.670;9.060;2023-11-21T08:38:23;8.20;99.90
4002;DHT22;2015;48.670;9.060;2023-11-21T08:40:55;8.20;99.90
4002;DHT22;2015;48.670;9.060;2023-11-21T08:43:27;8.30;99.90
4002;DHT22;2015;48.670;9.060;2023-11-21T08:45:59;8.30;99.90
4002;DHT22;2015;48.670;9.060;2023-11-21T08:48:30;8.40;99.90
4002;DHT22;2015;48.670;9.060;2023-11-21T08:51:03;8.50;99.90
4002;DHT22;2015;48.670;9.060;2023-11-21T08:53:36;8.60;99.90
4002;DHT22;2015;48.670;9.060;2023-11-21T08:56:08;8.80;99.90
4002;DHT22;2015;48.670;9.060;2023-11-21T08:58:43;8.90;99.90
4002;DHT22;2015;48.670;9.060;2023-11-21T09:01:15;8.90;99.90
4002;DHT22;2015;48.670;9.060;2023-11-21T09:03:47;8.80;99.90
4002;DHT22;2015;48.670;9.060;2023-11-21T09:06:19;8.70;99.90
4002;DHT22;2015;48.670;9.060;2023-11-21T09:08:51;8.70;99.90
4002;DHT22;2015;48.670;9.060;2023-11-21T09:11:23;8.70;99.90
4002;DHT22;2015;48.670;9.060;2023-11-21T09:13:55;8.70;99.90
4002;DHT22;2015;48.670;9.060;2023-11-21T09:16:26;8.70;99.90
4002;DHT22;2015;48.670;9.060;2023-11-21T09:18:58;8.60;99.90
4002;DHT22;2015;48.670;9.060;2023-11-21T09:21:33;8.60;99.90
4002;DHT22;2015;48.670;9.060;2023-11-21T09:24:06;8.60;99.90
4002;DHT22;2015;48.670;9.060;2023-11-21T09:26:40;8.60;99.90
4002;DHT22;2015;48.670;9.060;2023-11-21T09:29:12;8.60;99.90
4002;DHT22;2015;48.670;9.060;2023-11-21T09:31:44;8.70;99.90
4002;DHT22;2015;48.670;9.060;2023-11-21T09:34:17;8.60;99.90
4002;DHT22;2015;48.670;9.060;2023-11-21T09:36:48;8.60;99.90
4002;DHT22;2015;48.670;9.060;2023-11-21T09:39:21;8.60;99.90
4002;DHT22;2015;48.670;9.060;2023-11-21T09:41:57;8.70;99.90
4002;DHT22;2015;48.670;9.060;2023-11-21T09:44:43;8.70;99.90
4002;DHT22;2015;48.670;9.060;2023-11-21T09:47:17;8.80;99.90
4002;DHT22;2015;48.670;9.060;2023-11-21T09:49:49;8.90;99.90
4002;DHT22;2015;48.670;9.060;2023-11-21T09:52:28;9.00;99.90
4002;DHT22;2015;48.670;9.060;2023-11-21T09:55:00;9.10;99.90
4002;DHT22;2015;48.670;9.060;2023-11-21T09:57:34;9.20;99.90
4002;DHT22;2015;48.670;9.060;2023-11-21T10:00:06;9.20;99.90
4002;DHT22;2015;48.670;9.060;2023-11-21T10:02:43;9.20;99.90
4002;DHT22;2015;48.670;9.060;2023-11-21T10:05:16;9.20;99.90
4002;DHT22;2015;48.670;9.060;2023-11-21T10:07:50;9.10;99.90
4002;DHT22;2015;48.670;9.060;2023-11-21T10:10:23;9.00;99.90
4002;DHT22;2015;48.670;9.060;2023-11-21T10:12:56;8.90;99.90
4002;DHT22;2015;48.670;9.060;2023-11-21T10:15:29;8.80;99.90
4002;DHT22;2015;48.670;9.060;2023-11-21T10:18:03;8.80;99.90
4002;DHT22;2015;48.670;9.060;2023-11-21T10:20:35;8.70;99.90
4002;DHT22;2015;48.670;9.060;2023-11-21T10:23:09;8.70;99.90
4002;DHT22;2015;48.670;9.060;2023-11-21T10:25:43;8.60;99.90
4002;DHT22;2015;48.670;9.060;2023-11-21T10:28:14;8.50;99.90
4002;DHT22;2015;48.670;9.060;2023-11-21T10:30:47;8.50;99.90
4002;DHT22;2015;48.670;9.060;2023-11-21T10:33:27;8.40;99.90
4002;DHT22;2015;48.670;9.060;2023-11-21T10:35:59;8.50;99.90
4002;DHT22;2015;48.670;9.060;2023-11-21T10:38:35;8.60;99.90
4002;DHT22;2015;48.670;9.060;2023-11-21T10:41:13;8.60;99.90
4002;DHT22;2015;48.670;9.060;2023-11-21T10:43:47;8.60;99.90
4002;DHT22;2015;48.670;9.060;2023-11-21T10:46:19;8.50;99.90
4002;DHT22;2015;48.670;9.060;2023-11-21T10:48:54;8.60;99.90
4002;DHT22;2015;48.670;9.060;2023-11-21T10:51:28;8.50;99.90
4002;DHT22;2015;48.670;9.060;2023-11-21T10:54:00;8.50;99.90
4002;DHT22;2015;48.670;9.060;2023-11-21T10:56:32;8.50;99.90
4002;DHT22;2015;48.670;9.060;2023-11-21T10:59:12;8.50;99.90
4002;DHT22;2015;48.670;9.060;2023-11-21T11:01:48;8.60;99.90
4002;DHT22;2015;48.670;9.060;2023-11-21T11:04:26;8.60;99.90
4002;DHT22;2015;48.670;9.060;2023-11-21T11:07:02;8.60;99.90
4002;DHT22;2015;48.670;9.060;2023-11-21T11:09:37;8.50;99.90
4002;DHT22;2015;48.670;9.060;2023-11-21T11:12:08;8.60;99.90
4002;DHT22;2015;48.670;9.060;2023-11-21T11:14:41;8.60;99.90
4002;DHT22;2015;48.670;9.060;2023-11-21T11:17:14;8.60;99.90
4002;DHT22;2015;48.670;9.060;2023-11-21T11:19:48;8.60;99.90
4002;DHT22;2015;48.670;9.060;2023-11-21T11:28:02;8.60;99.90
4002;DHT22;2015;48.670;9.060;2023-11-21T11:36:49;8.60;99.90
4002;DHT22;2015;48.670;9.060;2023-11-21T11:39:47;8.60;99.90
4002;DHT22;2015;48.670;9.060;2023-11-21T11:42:21;8.60;99.90
4002;DHT22;2015;48.670;9.060;2023-11-21T11:44:54;8.60;99.90
4002;DHT22;2015;48.670;9.060;2023-11-21T11:47:29;8.70;99.90
4002;DHT22;2015;48.670;9.060;2023-11-21T11:50:10;8.70;99.90
4002;DHT22;2015;48.670;9.060;2023-11-21T11:52:49;8.70;99.90
4002;DHT22;2015;48.670;9.060;2023-11-21T11:55:26;8.80;99.90
4002;DHT22;2015;48.670;9.060;2023-11-21T11:58:06;8.90;99.90
4002;DHT22;2015;48.670;9.060;2023-11-21T12:00:38;9.00;99.90
4002;DHT22;2015;48.670;9.060;2023-11-21T12:03:13;9.10;99.90
4002;DHT22;2015;48.670;9.060;2023-11-21T12:05:46;9.10;99.90
4002;DHT22;2015;48.670;9.060;2023-11-21T12:08:18;9.20;99.90
4002;DHT22;2015;48.670;9.060;2023-11-21T12:10:52;9.30;99.90
4002;DHT22;2015;48.670;9.060;2023-11-21T12:13:27;9.40;99.90
4002;DHT22;2015;48.670;9.060;2023-11-21T12:16:00;9.50;99.90
4002;DHT22;2015;48.670;9.060;2023-11-21T12:18:32;9.60;99.90
4002;DHT22;2015;48.670;9.060;2023-11-21T12:21:04;9.60;99.90
4002;DHT22;2015;48.670;9.060;2023-11-21T12:23:35;9.60;99.90
4002;DHT22;2015;48.670;9.060;2023-11-21T12:26:07;9.60;99.90
4002;DHT22;2015;48.670;9.060;2023-11-21T12:28:40;9.60;99.90
4002;DHT22;2015;48.670;9.060;2023-11-21T12:31:12;9.50;99.90
4002;DHT22;2015;48.670;9.060;2023-11-21T12:33:53;9.40;99.90
4002;DHT22;2015;48.670;9.060;2023-11-21T12:36:25;9.30;99.90
4002;DHT22;2015;48.670;9.060;2023-11-21T12:38:57;9.10;99.90
4002;DHT22;2015;48.670;9.060;2023-11-21T12:41:28;9.20;99.90
4002;DHT22;2015;48.670;9.060;2023-11-21T12:44:00;9.10;99.90
4002;DHT22;2015;48.670;9.060;2023-11-21T12:46:32;9.10;99.90
4002;DHT22;2015;48.670;9.060;2023-11-21T12:49:06;9.10;99.90
4002;DHT22;2015;48.670;9.060;2023-11-21T12:51:38;8.90;99.90
4002;DHT22;2015;48.670;9.060;2023-11-21T12:54:09;8.90;99.90
4002;DHT22;2015;48.670;9.060;2023-11-21T12:56:41;8.80;99.90
4002;DHT22;2015;48.670;9.060;2023-11-21T12:59:16;8.80;99.90
4002;DHT22;2015;48.670;9.060;2023-11-21T13:01:49;8.80;99.90
4002;DHT22;2015;48.670;9.060;2023-11-21T13:04:30;8.90;99.90
4002;DHT22;2015;48.670;9.060;2023-11-21T13:07:04;8.90;99.90
4002;DHT22;2015;48.670;9.060;2023-11-21T13:09:46;9.00;99.90
4002;DHT22;2015;48.670;9.060;2023-11-21T13:12:17;9.10;99.90
4002;DHT22;2015;48.670;9.060;2023-11-21T13:14:56;9.00;99.90
4002;DHT22;2015;48.670;9.060;2023-11-21T13:17:30;9.00;99.90
4002;DHT22;2015;48.670;9.060;2023-11-21T13:20:03;9.10;99.90
4002;DHT22;2015;48.670;9.060;2023-11-21T13:22:39;9.10;99.90
4002;DHT22;2015;48.670;9.060;2023-11-21T13:25:11;9.10;99.90
4002;DHT22;2015;48.670;9.060;2023-11-21T13:27:43;9.10;99.90
4002;DHT22;2015;48.670;9.060;2023-11-21T13:30:17;9.00;99.90
4002;DHT22;2015;48.670;9.060;2023-11-21T13:32:52;9.00;99.90
4002;DHT22;2015;48.670;9.060;2023-11-21T13:35:24;8.90;99.90
4002;DHT22;2015;48.670;9.060;2023-11-21T13:38:06;8.90;99.90
4002;DHT22;2015;48.670;9.060;2023-11-21T13:40:39;8.90;99.90
4002;DHT22;2015;48.670;9.060;2023-11-21T13:43:16;8.90;99.90
4002;DHT22;2015;48.670;9.060;2023-11-21T13:45:49;8.80;99.90
4002;DHT22;2015;48.670;9.060;2023-11-21T13:48:28;8.80;99.90
4002;DHT22;2015;48.670;9.060;2023-11-21T13:51:09;8.70;99.90
4002;DHT22;2015;48.670;9.060;2023-11-21T13:53:50;8.50;99.90
4002;DHT22;2015;48.670;9.060;2023-11-21T13:56:24;8.40;99.90
4002;DHT22;2015;48.670;9.060;2023-11-21T13:58:56;8.30;99.90
4002;DHT22;2015;48.670;9.060;2023-11-21T14:01:30;8.20;99.90
4002;DHT22;2015;48.670;9.060;2023-11-21T14:04:03;8.10;99.90
4002;DHT22;2015;48.670;9.060;2023-11-21T14:06:51;8.10;99.90
4002;DHT22;2015;48.670;9.060;2023-11-21T14:09:26;8.10;99.90
4002;DHT22;2015;48.670;9.060;2023-11-21T14:12:04;8.10;99.90
4002;DHT22;2015;48.670;9.060;2023-11-21T14:14:39;8.10;99.90
4002;DHT22;2015;48.670;9.060;2023-11-21T14:17:11;8.10;99.90
4002;DHT22;2015;48.670;9.060;2023-11-21T14:19:43;8.10;99.90
4002;DHT22;2015;48.670;9.060;2023-11-21T14:22:16;8.10;99.90
4002;DHT22;2015;48.670;9.060;2023-11-21T14:24:49;8.10;99.90
4002;DHT22;2015;48.670;9.060;2023-11-21T14:27:23;8.10;99.90
4002;DHT22;2015;48.670;9.060;2023-11-21T14:29:56;8.10;99.90
4002;DHT22;2015;48.670;9.060;2023-11-21T14:32:29;8.20;99.90
4002;DHT22;2015;48.670;9.060;2023-11-21T14:35:01;8.20;99.90
4002;DHT22;2015;48.670;9.060;2023-11-21T14:37:32;8.20;99.90
4002;DHT22;2015;48.670;9.060;2023-11-21T14:40:04;8.20;99.90
4002;DHT22;2015;48.670;9.060;2023-11-21T14:42:39;8.20;99.90
4002;DHT22;2015;48.670;9.060;2023-11-21T14:45:11;8.20;99.90
4002;DHT22;2015;48.670;9.060;2023-11-21T14:47:44;8.20;99.90
4002;DHT22;2015;48.670;9.060;2023-11-21T14:50:22;8.30;99.90
4002;DHT22;2015;48.670;9.060;2023-11-21T14:53:15;8.30;99.90
4002;DHT22;2015;48.670;9.060;2023-11-21T14:55:48;8.20;99.90
4002;DHT22;2015;48.670;9.060;2023-11-21T14:58:22;8.20;99.90
4002;DHT22;2015;48.670;9.060;2023-11-21T15:01:00;8.20;99.90
4002;DHT22;2015;48.670;9.060;2023-11-21T15:03:32;8.20;99.90
4002;DHT22;2015;48.670;9.060;2023-11-21T15:06:05;8.20;99.90
4002;DHT22;2015;48.670;9.060;2023-11-21T15:08:57;8.20;99.90
4002;DHT22;2015;48.670;9.060;2023-11-21T15:11:38;8.20;99.90
4002;DHT22;2015;48.670;9.060;2023-11-21T15:14:10;8.10;99.90
4002;DHT22;2015;48.670;9.060;2023-11-21T15:16:47;8.10;99.90
4002;DHT22;2015;48.670;9.060;2023-11-21T15:19:22;8.10;99.90
4002;DHT22;2015;48.670;9.060;2023-11-21T15:21:58;8.00;99.90
4002;DHT22;2015;48.670;9.060;2023-11-21T15:24:29;8.00;99.90
4002;DHT22;2015;48.670;9.060;2023-11-21T15:27:01;8.00;99.90
4002;DHT22;2015;48.670;9.060;2023-11-21T15:29:35;7.90;99.90
4002;DHT22;2015;48.670;9.060;2023-11-21T15:32:07;7.90;99.90
4002;DHT22;2015;48.670;9.060;2023-11-21T15:34:39;7.90;99.90
4002;DHT22;2015;48.670;9.060;2023-11-21T15:37:11;7.90;99.90
4002;DHT22;2015;48.670;9.060;2023-11-21T15:39:43;7.90;99.90
4002;DHT22;2015;48.670;9.060;2023-11-21T15:42:16;7.90;99.90
4002;DHT22;2015;48.670;9.060;2023-11-21T15:44:48;7.90;99.90
4002;DHT22;2015;48.670;9.060;2023-11-21T15:47:21;7.90;99.90
4002;DHT22;2015;48.670;9.060;2023-11-21T15:49:54;7.90;99.90
4002;DHT22;2015;48.670;9.060;2023-11-21T15:52:25;7.90;99.90
4002;DHT22;2015;48.670;9.060;2023-11-21T15:54:57;7.90;99.90
4002;DHT22;2015;48.670;9.060;2023-11-21T15:57:29;7.90;99.90
4002;DHT22;2015;48.670;9.060;2023-11-21T16:00:01;7.90;99.90
4002;DHT22;2015;48.670;9.060;2023-11-21T16:02:40;7.90;99.90
4002;DHT22;2015;48.670;9.060;2023-11-21T16:05:12;7.90;99.90
4002;DHT22;2015;48.670;9.060;2023-11-21T16:07:46;8.00;99.90
4002;DHT22;2015;48.670;9.060;2023-11-21T16:10:18;7.90;99.90
4002;DHT22;2015;48.670;9.060;2023-11-21T16:12:50;7.90;99.90
4002;DHT22;2015;48.670;9.060;2023-11-21T16:15:22;7.90;99.90
4002;DHT22;2015;48.670;9.060;2023-11-21T16:17:54;7.90;99.90
4002;DHT22;2015;48.670;9.060;2023-11-21T16:20:27;7.90;99.90
4002;DHT22;2015;48.670;9.060;2023-11-21T16:22:58;7.90;99.90
4002;DHT22;2015;48.670;9.060;2023-11-21T16:25:30;7.90;99.90
4002;DHT22;2015;48.670;9.060;2023-11-21T16:28:02;7.80;99.90
4002;DHT22;2015;48.670;9.060;2023-11-21T16:30:36;7.80;99.90
4002;DHT22;2015;48.670;9.060;2023-11-21T16:33:08;7.80;99.90
4002;DHT22;2015;48.670;9.060;2023-11-21T16:35:40;7.80;99.90
4002;DHT22;2015;48.670;9.060;2023-11-21T16:38:13;7.80;99.90
4002;DHT22;2015;48.670;9.060;2023-11-21T16:40:45;7.80;99.90
4002;DHT22;2015;48.670;9.060;2023-11-21T16:43:17;7.70;99.90
4002;DHT22;2015;48.670;9.060;2023-11-21T16:45:49;7.80;99.90
4002;DHT22;2015;48.670;9.060;2023-11-21T16:48:23;7.80;99.90
4002;DHT22;2015;48.670;9.060;2023-11-21T16:50:55;7.80;99.90
4002;DHT22;2015;48.670;9.060;2023-11-21T16:53:26;7.80;99.90
4002;DHT22;2015;48.670;9.060;2023-11-21T16:55:58;7.80;99.90
4002;DHT22;2015;48.670;9.060;2023-11-21T16:58:32;7.80;99.90
4002;DHT22;2015;48.670;9.060;2023-11-21T17:01:04;7.80;99.90
4002;DHT22;2015;48.670;9.060;2023-11-21T17:03:39;7.80;99.90
4002;DHT22;2015;48.670;9.060;2023-11-21T17:06:11;7.70;99.90